EW4197 Weather Reports


Display with metric or nautical units.
time (UTC)temp
F
wind
direction
speed
MPH
gust
MPH
rain 1hr
in
rain 24hr
in
rain mn
in
humidity
%
barometer
mb
20190218020016 32 270 0.0 4.0 0.00 0.00 0.00 37 1007.7
20190218013016 33 273 0.0 4.0 0.00 0.00 0.00 41 1007.2
20190218010015 33 274 0.0 1.0 0.00 0.00 0.00 42 1006.9
20190218003015 34 124 0.0 3.0 0.00 0.00 0.00 42 1006.2
20190218000015 37 135 0.0 3.0 0.00 0.00 0.00 35 1007.5
20190217233016 37 0.0 0.0 0.00 0.00 0.00 36 1007.7
20190217230016 34 0.0 0.0 0.00 0.00 0.00 39 1007.5
20190217223016 35 0.0 4.0 0.00 0.00 0.00 38 1007.6
20190217220016 35 263 0.0 4.0 0.00 0.00 0.00 40 1007.8
20190217213016 35 130 0.0 3.0 0.00 0.00 0.00 38 1008.0
20190217210015 36 243 0.0 6.0 0.00 0.00 0.00 38 1008.4
20190217203015 36 148 0.0 6.0 0.00 0.00 0.00 36 1009.1
20190217200016 36 145 0.0 5.0 0.00 0.00 0.00 37 1009.9
20190217193016 35 185 0.0 5.0 0.00 0.00 0.00 39 1010.4
20190217190015 34 311 0.0 4.0 0.00 0.00 0.00 41 1010.5
20190217183015 33 339 0.0 1.0 0.00 0.00 0.00 39 1010.5
20190217180015 32 0.0 0.0 0.00 0.00 0.00 37 1010.0
20190217173019 30 0.0 0.0 0.00 0.00 0.00 53 1009.8
20190217170015 30 0.0 0.0 0.00 0.00 0.00 49 1009.6
20190217163015 29 0.0 0.0 0.00 0.00 0.00 45 1009.2
20190217160015 28 0.0 0.0 0.00 0.00 0.00 53 1009.2
20190217153015 26 0.0 0.0 0.00 0.00 0.00 58 1008.9
20190217150017 26 0.0 1.0 0.00 0.00 0.00 56 1008.8
20190217143017 28 210 0.0 1.0 0.00 0.00 0.00 47 1009.6
20190217140017 28 0.0 0.0 0.00 0.00 0.00 42 1009.9
20190217133017 27 0.0 7.0 0.00 0.00 0.00 47 1009.8
20190217130017 27 325 0.0 7.0 0.00 0.00 0.00 52 1010.7
20190217123017 27 310 0.0 6.0 0.00 0.00 0.00 58 1011.8
20190217120017 25 343 0.0 6.0 0.00 0.00 0.00 64 1011.3
20190217113017 29 337 0.0 6.0 0.00 0.00 0.00 49 1011.6
20190217110016 29 0.0 0.0 0.00 0.00 0.00 46 1010.8
20190217103017 28 0.0 0.0 0.00 0.00 0.00 51 1011.1
20190217100016 29 0.0 0.0 0.00 0.00 0.00 49 1011.7
20190217093017 30 0.0 0.0 0.00 0.00 0.00 46 1011.6
20190217090016 29 0.0 0.0 0.00 0.00 0.00 49 1011.4
20190217083016 29 0.0 0.0 0.00 0.00 0.00 51 1011.3
20190217080016 29 0.0 5.0 0.00 0.00 0.00 50 1011.4
20190217073016 32 268 0.0 5.0 0.00 0.00 0.00 44 1011.4
20190217070016 33 278 0.0 6.0 0.00 0.00 0.00 39 1011.7
20190217063016 34 273 0.0 6.0 0.00 0.00 0.00 39 1011.5
20190217060016 33 280 0.0 6.0 0.00 0.00 0.00 39 1011.3
20190217053016 34 292 0.0 5.0 0.00 0.00 0.00 38 1011.4
20190217050016 34 292 0.0 10.0 0.00 0.00 0.00 41 1011.5
20190217043016 33 321 0.0 10.0 0.00 0.00 0.00 43 1011.3
20190217040016 32 342 0.0 7.0 0.00 0.00 0.00 48 1011.1
20190217033016 34 334 1.0 8.0 0.00 0.00 0.00 41 1011.0
20190217030016 35 323 0.0 8.0 0.00 0.00 0.00 39 1010.9
20190217023016 35 333 0.0 7.0 0.00 0.00 0.00 38 1010.8